Time;durP1;ratioP1;P1;durP2;ratioP2;P2;SDS_P1;SDS_P2;PMS_P1;PMS_P2;Temp;Humidity;BMP_temperature;BMP_pressure;BME280_temperature;BME280_humidity;BME280_pressure;Samples;Min_cycle;Max_cycle;Signal;HPM_P1;HPM_P2
2022/11/11 00:01:14;;;;;;;14.35;5.60;;;11.40;99.90;;;;;;5037048;28;20041;-83
2022/11/11 00:03:41;;;;;;;11.10;6.47;;;12.20;99.90;;;;;;5038578;28;20077;-83
2022/11/11 00:06:16;;;;;;;7.45;4.85;;;11.40;99.90;;;;;;5023718;28;20115;-83
2022/11/11 00:08:45;;;;;;;10.40;5.93;;;12.20;99.90;;;;;;5022118;28;20502;-84
2022/11/11 00:11:12;;;;;;;10.75;5.70;;;11.50;99.90;;;;;;5041192;28;20039;-83
2022/11/11 00:13:50;;;;;;;;;;;;;;;;;;;;;
2022/11/11 00:16:24;;;;;;;11.30;5.63;;;12.30;99.90;;;;;;5038343;28;20087;-83
2022/11/11 00:27:13;;;;;;;13.13;6.38;;;12.50;99.90;;;;;;5040418;28;20044;-83
2022/11/11 00:29:44;;;;;;;13.48;6.13;;;12.00;99.90;;;;;;5038301;28;20038;-83
2022/11/11 00:32:22;;;;;;;15.30;6.88;;;11.60;99.90;;;;;;5038110;28;20045;-83
2022/11/11 00:37:39;;;;;;;13.70;6.80;;;11.80;99.90;;;;;;5040351;28;20041;-84
2022/11/11 00:40:11;;;;;;;13.07;6.15;;;11.90;99.90;;;;;;5023215;28;20059;-83
2022/11/11 00:42:40;;;;;;;15.98;7.10;;;11.60;99.90;;;;;;5025766;28;20867;-84
2022/11/11 00:45:09;;;;;;;15.32;6.55;;;11.90;99.90;;;;;;5039455;28;20098;-83
2022/11/11 00:53:22;;;;;;;15.80;6.28;;;12.30;99.90;;;;;;5037887;28;20053;-83
2022/11/11 00:55:51;;;;;;;12.40;6.40;;;11.70;99.90;;;;;;5026282;28;20494;-84
2022/11/11 00:58:26;;;;;;;12.07;6.25;;;11.60;99.90;;;;;;5035237;28;20052;-83
2022/11/11 01:00:53;;;;;;;11.00;6.63;;;11.80;99.90;;;;;;5035393;28;20404;-83
2022/11/11 01:03:20;;;;;;;12.65;6.18;;;11.60;99.90;;;;;;5024077;28;20041;-83
2022/11/11 01:06:08;;;;;;;11.00;6.30;;;11.60;99.90;;;;;;5036132;28;20041;-84
2022/11/11 01:08:34;;;;;;;13.23;6.03;;;11.70;99.90;;;;;;5039615;28;20128;-83
2022/11/11 01:10:59;;;;;;;16.23;6.95;;;11.90;99.90;;;;;;5035932;28;20144;-83
2022/11/11 01:13:32;;;;;;;17.20;7.20;;;11.60;99.90;;;;;;5036902;28;20046;-83
2022/11/11 01:16:04;;;;;;;14.25;6.47;;;11.50;99.90;;;;;;5039031;28;20045;-83
2022/11/11 01:18:30;;;;;;;11.50;6.97;;;11.50;99.90;;;;;;5037090;28;20069;-83
2022/11/11 01:21:20;;;;;;;13.45;7.18;;;11.40;99.90;;;;;;5022455;28;20079;-84
2022/11/11 01:23:49;;;;;;;17.08;7.30;;;11.40;99.90;;;;;;5038635;28;20037;-83
2022/11/11 01:26:18;;;;;;;11.18;6.60;;;11.70;99.90;;;;;;5022918;28;20045;-83
2022/11/11 01:29:01;;;;;;;15.52;6.80;;;11.40;99.90;;;;;;5019408;28;20069;-83
2022/11/11 01:31:27;;;;;;;14.60;8.13;;;11.30;99.90;;;;;;5036587;28;20045;-84
2022/11/11 01:33:53;;;;;;;15.52;7.03;;;11.30;99.90;;;;;;5038036;28;20048;-84
2022/11/11 01:36:25;;;;;;;13.35;7.93;;;11.20;99.90;;;;;;5034592;28;20032;-83
2022/11/11 01:38:54;;;;;;;14.50;7.75;;;11.20;99.90;;;;;;5022634;28;20049;-83
2022/11/11 01:41:32;;;;;;;15.40;8.25;;;11.20;99.90;;;;;;5022935;28;20037;-83
2022/11/11 01:44:04;;;;;;;11.48;8.43;;;12.10;99.90;;;;;;5035434;28;20041;-83
2022/11/11 01:47:05;;;;;;;11.75;7.90;;;11.10;99.90;;;;;;5034087;28;20515;-83
2022/11/11 01:49:43;;;;;;;16.88;9.65;;;11.10;99.90;;;;;;5040619;28;20082;-84
2022/11/11 01:52:31;;;;;;;11.57;8.38;;;11.00;99.90;;;;;;5038120;28;20044;-83
2022/11/11 01:55:02;;;;;;;13.43;8.93;;;11.00;99.90;;;;;;5037675;28;20044;-84
2022/11/11 01:57:37;;;;;;;16.52;9.20;;;11.00;99.90;;;;;;5037123;28;20094;-84
2022/11/11 02:00:11;;;;;;;14.38;9.02;;;10.90;99.90;;;;;;5023725;28;20041;-83
2022/11/11 02:02:51;;;;;;;14.20;9.63;;;10.90;99.90;;;;;;5035627;28;20039;-83
2022/11/11 02:05:45;;;;;;;16.95;10.30;;;10.90;99.90;;;;;;5024371;28;20044;-84
2022/11/11 02:08:30;;;;;;;20.83;10.80;;;10.80;99.90;;;;;;5039540;28;20059;-83
2022/11/11 02:14:34;;;;;;;17.33;10.70;;;11.00;99.90;;;;;;5026465;28;20243;-84
2022/11/11 02:16:56;;;;;;;17.15;11.40;;;10.90;99.90;;;;;;5036883;28;20056;-84
2022/11/11 02:19:53;;;;;;;18.08;12.27;;;11.00;99.90;;;;;;5036528;28;20049;-83
2022/11/11 02:22:27;;;;;;;15.10;11.90;;;10.70;99.90;;;;;;5031862;28;20046;-83
2022/11/11 02:24:54;;;;;;;16.15;12.15;;;10.90;99.90;;;;;;5020446;28;20399;-83
2022/11/11 02:27:25;;;;;;;15.70;11.80;;;10.60;99.90;;;;;;5034921;28;20033;-83
2022/11/11 02:29:53;;;;;;;19.60;12.65;;;10.60;99.90;;;;;;5024297;28;20148;-83
2022/11/11 02:32:19;;;;;;;17.45;12.73;;;10.70;99.90;;;;;;5042461;28;20102;-83
2022/11/11 02:34:45;;;;;;;17.25;13.13;;;10.60;99.90;;;;;;5027942;28;20041;-83
2022/11/11 02:37:11;;;;;;;21.27;14.90;;;10.60;99.90;;;;;;5038055;28;20562;-83
2022/11/11 02:40:06;;;;;;;17.35;14.55;;;10.60;99.90;;;;;;5042542;28;20107;-83
2022/11/11 02:42:30;;;;;;;20.45;14.57;;;10.70;99.90;;;;;;5036899;28;20053;-83
2022/11/11 02:45:00;;;;;;;22.30;14.60;;;10.70;99.90;;;;;;5025559;28;20502;-83
2022/11/11 02:47:29;;;;;;;22.00;15.23;;;10.70;99.90;;;;;;5024173;28;20052;-83
2022/11/11 02:49:54;;;;;;;23.50;14.85;;;10.80;99.90;;;;;;5040326;28;20098;-83
2022/11/11 02:52:23;;;;;;;20.05;15.18;;;10.70;99.90;;;;;;5023116;28;20834;-84
2022/11/11 02:54:49;;;;;;;21.08;15.82;;;10.70;99.90;;;;;;5039385;28;20092;-83
2022/11/11 02:57:15;;;;;;;22.90;16.00;;;10.70;99.90;;;;;;5023458;28;21205;-83
2022/11/11 02:59:44;;;;;;;23.27;16.65;;;10.70;99.90;;;;;;5043625;28;20167;-83
2022/11/11 03:02:09;;;;;;;20.63;16.70;;;10.60;99.90;;;;;;5041084;28;20090;-83
2022/11/11 03:04:44;;;;;;;21.17;16.08;;;10.80;99.90;;;;;;5039517;28;20049;-83
2022/11/11 03:07:13;;;;;;;24.42;16.83;;;10.70;99.90;;;;;;5040348;28;20152;-83
2022/11/11 03:09:41;;;;;;;23.75;17.35;;;10.70;99.90;;;;;;5040245;28;20056;-83
2022/11/11 03:12:06;;;;;;;23.42;17.25;;;11.00;99.90;;;;;;5040027;28;20048;-83
2022/11/11 03:14:32;;;;;;;22.90;17.40;;;11.60;99.90;;;;;;5048827;28;20033;-83
2022/11/11 03:19:45;;;;;;;22.55;16.98;;;10.70;99.90;;;;;;5040066;28;20037;-83
2022/11/11 03:22:12;;;;;;;22.63;17.58;;;10.70;99.90;;;;;;5022084;28;20048;-83
2022/11/11 03:27:21;;;;;;;21.13;17.40;;;10.70;99.90;;;;;;5037842;28;20049;-83
2022/11/11 03:29:47;;;;;;;24.38;16.30;;;10.70;99.90;;;;;;5022578;28;20037;-83
2022/11/11 03:32:12;;;;;;;20.05;17.30;;;10.70;99.90;;;;;;5027366;28;20037;-83
2022/11/11 03:34:38;;;;;;;19.55;17.52;;;10.70;99.90;;;;;;5040115;28;20048;-83
2022/11/11 03:39:50;;;;;;;24.85;18.60;;;10.70;99.90;;;;;;5042471;28;20045;-83
2022/11/11 03:42:15;;;;;;;25.38;18.42;;;10.70;99.90;;;;;;5025520;28;20430;-81
2022/11/11 03:44:44;;;;;;;24.98;18.88;;;10.70;99.90;;;;;;5040790;28;20120;-81
2022/11/11 03:47:26;;;;;;;21.70;18.05;;;11.50;99.90;;;;;;5039509;28;20690;-81
2022/11/11 03:49:51;;;;;;;21.52;18.63;;;10.70;99.90;;;;;;5042100;28;20094;-81
2022/11/11 03:52:17;;;;;;;20.83;18.55;;;10.70;99.90;;;;;;5045219;28;20033;-80
2022/11/11 03:54:59;;;;;;;27.73;19.33;;;10.70;99.90;;;;;;5030767;28;20088;-81
2022/11/11 03:57:31;;;;;;;25.70;19.00;;;10.70;99.90;;;;;;5026770;28;20060;-81
2022/11/11 03:59:56;;;;;;;23.50;19.70;;;10.70;99.90;;;;;;5025453;28;20086;-81
2022/11/11 04:11:37;;;;;;;23.63;18.60;;;10.80;99.90;;;;;;5043904;28;20090;-81
2022/11/11 04:17:00;;;;;;;;;;;10.80;99.90;;;;;;5044916;28;20049;-81
2022/11/11 04:22:23;;;;;;;28.23;19.95;;;10.80;99.90;;;;;;5043953;28;20055;-81
2022/11/11 04:27:45;;;;;;;28.90;20.85;;;10.80;99.90;;;;;;5024788;28;20561;-80
2022/11/11 04:30:11;;;;;;;26.10;21.63;;;10.80;99.90;;;;;;5028025;28;20033;-81
2022/11/11 04:32:39;;;;;;;24.40;20.13;;;10.80;99.90;;;;;;5042521;28;20041;-81
2022/11/11 04:35:09;;;;;;;28.40;20.95;;;10.80;99.90;;;;;;5026654;28;20025;-81
2022/11/11 04:41:02;;;;;;;24.73;20.83;;;10.80;99.90;;;;;;5043197;28;20433;-80
2022/11/11 04:41:07;;;;;;;28.70;22.13;;;10.80;99.90;;;;;;5041300;28;20076;-81
2022/11/11 04:46:36;;;;;;;28.80;22.10;;;10.80;99.90;;;;;;5043090;28;20052;-80
2022/11/11 04:49:02;;;;;;;25.98;21.88;;;10.90;99.90;;;;;;5031784;28;20041;-80
2022/11/11 04:52:25;;;;;;;24.02;21.00;;;10.80;99.90;;;;;;5043818;28;20105;-80
2022/11/11 04:54:16;;;;;;;28.55;21.85;;;10.80;99.90;;;;;;5041178;28;20052;-81
2022/11/11 04:57:40;;;;;;;24.48;21.17;;;10.80;99.90;;;;;;5041607;28;20044;-85
2022/11/11 05:00:44;;;;;;;25.35;20.95;;;10.90;99.90;;;;;;4946359;28;20057;-83
2022/11/11 05:11:05;;;;;;;25.58;21.00;;;10.90;99.90;;;;;;4975245;28;20044;-81
2022/11/11 05:22:22;;;;;;;26.17;21.58;;;10.90;99.90;;;;;;5044198;28;20038;-83
2022/11/11 05:27:35;;;;;;;27.35;22.27;;;11.00;99.90;;;;;;5041755;28;20048;-82
2022/11/11 05:30:04;;;;;;;30.67;22.15;;;11.00;99.90;;;;;;5039905;28;20041;-83
2022/11/11 05:33:01;;;;;;;26.15;20.20;;;11.00;99.90;;;;;;5041390;28;20046;-82
2022/11/11 05:35:42;;;;;;;27.58;22.00;;;11.00;99.90;;;;;;5031696;28;20045;-84
2022/11/11 05:38:20;;;;;;;25.85;21.27;;;10.90;99.90;;;;;;5036149;28;20051;-83
2022/11/11 05:44:46;;;;;;;29.55;21.70;;;11.00;99.90;;;;;;5043275;28;20036;-87
2022/11/11 05:47:32;;;;;;;28.42;21.45;;;11.00;99.90;;;;;;5040729;28;20038;-85
2022/11/11 06:08:34;;;;;;;28.65;21.73;;;11.00;99.90;;;;;;5003278;28;20114;-84
2022/11/11 06:11:03;;;;;;;31.23;22.05;;;10.90;99.90;;;;;;5016812;28;20066;-82
2022/11/11 06:13:28;;;;;;;27.33;21.55;;;11.00;99.90;;;;;;5033905;28;20044;-84
2022/11/11 06:15:57;;;;;;;24.58;20.95;;;10.90;99.90;;;;;;5029740;28;20037;-83
2022/11/11 06:18:27;;;;;;;29.02;21.27;;;11.00;99.90;;;;;;5017366;28;20043;-84
2022/11/11 06:21:11;;;;;;;31.17;21.42;;;10.90;99.90;;;;;;5026374;28;20487;-85
2022/11/11 06:23:50;;;;;;;26.38;20.83;;;11.00;99.90;;;;;;5038488;28;20071;-84
2022/11/11 06:26:16;;;;;;;27.77;20.95;;;11.00;99.90;;;;;;5023182;28;20041;-83
2022/11/11 06:29:06;;;;;;;27.77;21.45;;;10.90;99.90;;;;;;5021291;28;20037;-83
2022/11/11 06:31:32;;;;;;;25.05;20.23;;;11.00;99.90;;;;;;5030195;28;20040;-83
2022/11/11 06:33:57;;;;;;;30.83;21.02;;;11.00;99.90;;;;;;5029322;28;20099;-84
2022/11/11 06:40:09;;;;;;;25.77;20.58;;;11.00;99.90;;;;;;5606626;23;21551;-84
2022/11/11 06:42:36;;;;;;;25.10;20.00;;;11.00;99.90;;;;;;4972765;28;20046;-84
2022/11/11 06:45:40;;;;;;;27.40;19.27;;;10.90;99.90;;;;;;4988490;28;20041;-87
2022/11/11 07:08:57;;;;;;;23.80;18.92;;;11.00;99.90;;;;;;5040717;28;20033;-84
2022/11/11 07:11:22;;;;;;;25.73;19.33;;;11.00;99.90;;;;;;5040487;28;20060;-84
2022/11/11 07:13:48;;;;;;;22.95;18.88;;;11.00;99.90;;;;;;5026698;28;20048;-84
2022/11/11 07:16:13;;;;;;;23.17;18.33;;;11.00;99.90;;;;;;5011197;28;20045;-84
2022/11/11 07:18:55;;;;;;;22.30;18.10;;;11.00;99.90;;;;;;5027139;28;20086;-84
2022/11/11 07:21:20;;;;;;;26.42;18.02;;;11.00;99.90;;;;;;5022126;28;20552;-84
2022/11/11 07:23:46;;;;;;;21.88;17.20;;;11.00;99.90;;;;;;5023958;28;20124;-84
2022/11/11 07:26:29;;;;;;;21.55;17.55;;;11.00;99.90;;;;;;5013178;28;20045;-84
2022/11/11 07:28:56;;;;;;;23.65;17.88;;;11.00;99.90;;;;;;5004995;28;20454;-83
2022/11/11 07:31:22;;;;;;;27.95;18.42;;;11.10;99.90;;;;;;5011964;28;20557;-84
2022/11/11 07:34:08;;;;;;;25.35;17.30;;;11.00;99.90;;;;;;5008696;28;20114;-85
2022/11/11 07:36:37;;;;;;;23.88;18.30;;;11.30;99.90;;;;;;5007950;28;20051;-84
2022/11/11 07:39:03;;;;;;;23.30;16.92;;;11.00;99.90;;;;;;5007912;28;20052;-84
2022/11/11 07:41:46;;;;;;;24.52;17.52;;;11.10;99.90;;;;;;5011546;28;20039;-85
2022/11/11 07:44:11;;;;;;;24.50;15.90;;;11.10;99.90;;;;;;5005831;28;20124;-84
2022/11/11 07:46:40;;;;;;;25.30;18.20;;;11.10;99.90;;;;;;5011993;28;20036;-85
2022/11/11 07:49:18;;;;;;;25.60;16.75;;;11.80;99.90;;;;;;5006934;28;20033;-84
2022/11/11 07:54:57;;;;;;;23.15;17.95;;;11.20;99.90;;;;;;4937171;28;20619;-84
2022/11/11 07:58:18;;;;;;;25.92;16.75;;;11.10;99.90;;;;;;5023065;28;20045;-85
2022/11/11 08:01:03;;;;;;;22.85;16.35;;;11.20;99.90;;;;;;5014115;28;20045;-84
2022/11/11 08:03:29;;;;;;;20.65;15.25;;;11.70;99.90;;;;;;5025423;28;20055;-84
2022/11/11 08:05:55;;;;;;;21.95;17.33;;;11.20;99.90;;;;;;5021553;28;20744;-84
2022/11/11 08:08:25;;;;;;;21.75;15.88;;;11.20;99.90;;;;;;5010942;28;20406;-84
2022/11/11 08:10:53;;;;;;;24.35;17.00;;;11.90;99.90;;;;;;5025461;28;20041;-84
2022/11/11 08:13:50;;;;;;;;;;;;;;;;;;;;;
2022/11/11 08:16:21;;;;;;;26.13;15.20;;;11.20;99.90;;;;;;5027360;28;20045;-84
2022/11/11 08:18:47;;;;;;;20.17;15.88;;;11.30;99.90;;;;;;5008721;28;20046;-84
2022/11/11 08:21:12;;;;;;;22.70;15.88;;;11.30;99.90;;;;;;5025011;28;20043;-84
2022/11/11 08:23:38;;;;;;;18.67;15.73;;;11.30;99.90;;;;;;5007483;28;20913;-84
2022/11/11 08:26:08;;;;;;;20.05;15.68;;;11.40;99.90;;;;;;5020670;28;20083;-83
2022/11/11 08:28:37;;;;;;;18.45;15.30;;;11.30;99.90;;;;;;5027383;28;20059;-84
2022/11/11 08:31:02;;;;;;;23.98;14.63;;;12.00;99.90;;;;;;5007771;28;20048;-83
2022/11/11 08:33:28;;;;;;;18.63;13.75;;;11.40;99.90;;;;;;5016225;28;20052;-84
2022/11/11 08:35:58;;;;;;;21.17;13.77;;;11.50;99.90;;;;;;5021903;28;20056;-84
2022/11/11 08:38:27;;;;;;;22.55;14.52;;;11.40;99.90;;;;;;5015139;28;20051;-84
2022/11/11 08:40:54;;;;;;;24.23;13.95;;;11.50;99.90;;;;;;5005993;28;20053;-83
2022/11/11 08:43:25;;;;;;;15.63;13.13;;;11.50;99.90;;;;;;5011357;28;20158;-84
2022/11/11 08:45:53;;;;;;;19.95;13.40;;;11.50;99.90;;;;;;5013120;28;20030;-83
2022/11/11 08:48:25;;;;;;;19.52;12.50;;;11.60;99.90;;;;;;5023049;28;20160;-84
2022/11/11 08:50:52;;;;;;;15.43;12.07;;;11.60;99.90;;;;;;5006428;28;20075;-84
2022/11/11 08:53:18;;;;;;;20.50;13.50;;;11.60;99.90;;;;;;5011225;28;20044;-83
2022/11/11 08:55:45;;;;;;;18.08;12.30;;;11.70;99.90;;;;;;5005321;28;20068;-84
2022/11/11 08:58:14;;;;;;;17.40;12.43;;;11.70;99.90;;;;;;5024105;28;20495;-84
2022/11/11 09:00:41;;;;;;;18.88;12.45;;;11.70;99.90;;;;;;5022484;28;20033;-83
2022/11/11 09:03:13;;;;;;;17.45;12.82;;;11.70;99.90;;;;;;5008035;28;20406;-84
2022/11/11 09:05:39;;;;;;;13.13;11.73;;;11.80;99.90;;;;;;5010335;28;20047;-83
2022/11/11 09:08:07;;;;;;;14.55;11.60;;;11.80;99.90;;;;;;5011776;28;20033;-83
2022/11/11 09:10:45;;;;;;;18.58;12.32;;;11.80;99.90;;;;;;5025188;28;20048;-83
2022/11/11 09:13:19;;;;;;;19.23;11.88;;;11.80;99.90;;;;;;5023542;28;20041;-84
2022/11/11 09:15:45;;;;;;;23.00;11.38;;;11.80;99.90;;;;;;5026515;28;20077;-83
2022/11/11 09:18:20;;;;;;;17.33;12.35;;;11.70;99.90;;;;;;5012769;28;20134;-83
2022/11/11 09:20:46;;;;;;;18.65;12.30;;;12.30;99.90;;;;;;5013089;28;20049;-84
2022/11/11 09:23:14;;;;;;;15.98;11.38;;;11.70;99.90;;;;;;5022816;28;20059;-84
2022/11/11 09:25:43;;;;;;;14.18;11.43;;;11.70;99.90;;;;;;5009940;28;20052;-83
2022/11/11 09:28:17;;;;;;;14.60;11.80;;;11.60;99.90;;;;;;5013373;28;20033;-83
2022/11/11 09:30:43;;;;;;;17.17;12.23;;;11.80;99.90;;;;;;5011804;28;20037;-84
2022/11/11 09:33:11;;;;;;;16.15;11.80;;;11.80;99.90;;;;;;5009593;28;20178;-84
2022/11/11 09:35:36;;;;;;;26.17;10.85;;;11.80;99.90;;;;;;5022815;28;20036;-83
2022/11/11 09:38:02;;;;;;;16.88;10.93;;;11.80;99.90;;;;;;5013083;28;20037;-83
2022/11/11 09:40:43;;;;;;;16.90;11.63;;;11.80;99.90;;;;;;5015623;28;20480;-83
2022/11/11 09:43:39;;;;;;;16.83;11.20;;;11.60;99.90;;;;;;5029173;28;20048;-83
2022/11/11 09:46:33;;;;;;;15.70;11.10;;;11.80;99.90;;;;;;5015486;28;20060;-83
2022/11/11 09:49:14;;;;;;;13.07;11.63;;;11.90;99.90;;;;;;5030166;28;20411;-83
2022/11/11 09:52:19;;;;;;;13.80;10.30;;;11.90;99.90;;;;;;5031946;28;20478;-84
2022/11/11 09:54:52;;;;;;;14.68;11.90;;;11.90;99.90;;;;;;4991910;28;20057;-83
2022/11/11 09:57:31;;;;;;;21.38;11.35;;;11.90;99.90;;;;;;5030292;28;20119;-83
2022/11/11 09:59:59;;;;;;;18.55;11.05;;;12.00;99.90;;;;;;5018844;28;20063;-83
2022/11/11 10:02:46;;;;;;;16.55;10.30;;;12.00;99.90;;;;;;5028504;28;20049;-83
2022/11/11 10:05:45;;;;;;;14.65;11.65;;;12.40;99.90;;;;;;5026348;28;20048;-84
2022/11/11 10:08:36;;;;;;;14.68;11.00;;;11.60;99.90;;;;;;5028046;28;20044;-84
2022/11/11 10:11:10;;;;;;;17.77;10.77;;;12.10;99.90;;;;;;5013357;28;20117;-83
2022/11/11 10:13:37;;;;;;;18.88;11.95;;;12.10;99.90;;;;;;5019112;28;20037;-84
2022/11/11 10:16:20;;;;;;;13.73;10.77;;;12.20;99.90;;;;;;5013630;28;20128;-83
2022/11/11 10:19:31;;;;;;;12.43;10.18;;;12.20;99.90;;;;;;5011526;28;20115;-83
2022/11/11 10:22:13;;;;;;;15.10;10.93;;;12.20;99.90;;;;;;5026087;28;20041;-85
2022/11/11 10:24:50;;;;;;;16.17;11.43;;;12.30;99.90;;;;;;5001726;28;20052;-84
2022/11/11 10:27:18;;;;;;;12.52;11.10;;;12.60;99.90;;;;;;5030887;28;20049;-83
2022/11/11 10:29:48;;;;;;;15.45;10.15;;;12.30;99.90;;;;;;5017373;28;20537;-83
2022/11/11 10:32:18;;;;;;;12.90;10.52;;;13.30;99.90;;;;;;5010361;28;20112;-84
2022/11/11 10:34:44;;;;;;;14.25;10.25;;;12.30;99.90;;;;;;5034477;28;20053;-83
2022/11/11 10:37:41;;;;;;;19.08;11.52;;;12.30;99.90;;;;;;5023098;28;20043;-84
2022/11/11 10:40:36;;;;;;;16.85;11.48;;;12.40;99.90;;;;;;5013251;28;20120;-86
2022/11/11 10:43:02;;;;;;;15.85;10.90;;;12.40;99.90;;;;;;5013295;28;20585;-83
2022/11/11 10:45:36;;;;;;;13.27;11.23;;;12.40;99.90;;;;;;5018916;28;20033;-84
2022/11/11 10:48:08;;;;;;;14.25;10.20;;;12.40;99.90;;;;;;5008642;28;20041;-83
2022/11/11 10:51:02;;;;;;;12.48;10.40;;;12.50;99.90;;;;;;5013525;28;20526;-83
2022/11/11 10:53:58;;;;;;;20.25;11.98;;;12.50;99.90;;;;;;5006784;28;20045;-83
2022/11/11 10:56:39;;;;;;;13.27;10.40;;;12.50;99.90;;;;;;5016031;28;20086;-83
2022/11/11 10:59:21;;;;;;;11.25;10.15;;;12.50;99.90;;;;;;5027092;28;20041;-83
2022/11/11 11:02:05;;;;;;;13.02;10.38;;;12.50;99.90;;;;;;5027328;28;20491;-83
2022/11/11 11:05:05;;;;;;;12.25;10.85;;;12.50;99.90;;;;;;5027166;28;20091;-84
2022/11/11 11:07:44;;;;;;;14.48;10.35;;;12.40;99.90;;;;;;5019621;28;20147;-84
2022/11/11 11:10:39;;;;;;;16.25;10.18;;;12.40;99.90;;;;;;5029110;28;20048;-84
2022/11/11 11:14:01;;;;;;;12.63;10.43;;;12.40;99.90;;;;;;5026654;28;20046;-82
2022/11/11 11:16:54;;;;;;;22.60;10.70;;;12.40;99.90;;;;;;5031037;28;20108;-83
2022/11/11 11:19:27;;;;;;;11.18;9.95;;;12.50;99.90;;;;;;5009498;28;20033;-83
2022/11/11 11:22:13;;;;;;;12.75;10.85;;;12.40;99.90;;;;;;5017596;28;20071;-83
2022/11/11 11:24:41;;;;;;;11.95;10.63;;;12.80;99.90;;;;;;5011499;28;20045;-84
2022/11/11 11:27:25;;;;;;;11.57;10.35;;;12.70;99.90;;;;;;5012928;28;20498;-84
2022/11/11 11:29:51;;;;;;;16.27;10.15;;;12.50;99.90;;;;;;5020298;28;20038;-81
2022/11/11 11:32:26;;;;;;;11.02;9.68;;;12.50;99.90;;;;;;5018043;28;20041;-81
2022/11/11 11:34:54;;;;;;;12.82;9.57;;;12.50;99.90;;;;;;5033035;28;20540;-81
2022/11/11 11:37:22;;;;;;;12.07;10.05;;;13.00;99.90;;;;;;5025963;28;20128;-81
2022/11/11 11:39:57;;;;;;;14.85;9.88;;;12.50;99.90;;;;;;5009737;28;20041;-81
2022/11/11 11:42:31;;;;;;;10.63;9.18;;;12.50;99.90;;;;;;5029197;28;20041;-81
2022/11/11 11:45:13;;;;;;;13.02;10.55;;;12.40;99.90;;;;;;5015760;28;20047;-82
2022/11/11 11:48:04;;;;;;;19.20;10.50;;;12.50;99.90;;;;;;5032027;28;20078;-82
2022/11/11 11:50:40;;;;;;;10.63;9.52;;;12.40;99.90;;;;;;5029042;28;20045;-81
2022/11/11 11:54:00;;;;;;;11.82;9.75;;;13.00;99.90;;;;;;5026153;28;20095;-81
2022/11/11 11:56:41;;;;;;;10.80;8.80;;;12.40;99.90;;;;;;4936189;29;20047;-81
2022/11/11 11:59:15;;;;;;;12.30;10.40;;;12.50;99.90;;;;;;4936218;28;20046;-81
2022/11/11 12:02:19;;;;;;;15.00;9.37;;;12.60;99.90;;;;;;4987771;28;20049;-81
2022/11/11 12:05:01;;;;;;;19.90;10.02;;;12.50;99.90;;;;;;5016242;28;20427;-81
2022/11/11 12:07:50;;;;;;;11.93;10.02;;;12.50;99.90;;;;;;5017180;28;20052;-81
2022/11/11 12:11:07;;;;;;;12.40;9.88;;;12.50;99.90;;;;;;5017013;28;20124;-81
2022/11/11 12:14:20;;;;;;;10.82;9.38;;;12.50;99.90;;;;;;4970498;28;20059;-84
2022/11/11 12:17:22;;;;;;;15.30;9.85;;;12.50;99.90;;;;;;5023974;28;20037;-82
2022/11/11 12:20:38;;;;;;;9.57;8.60;;;12.50;99.90;;;;;;5025901;28;20045;-83
2022/11/11 12:23:33;;;;;;;18.55;9.32;;;12.50;99.90;;;;;;5026236;28;20045;-83
2022/11/11 12:26:44;;;;;;;10.45;9.45;;;12.60;99.90;;;;;;5007137;28;20077;-84
2022/11/11 12:29:47;;;;;;;12.52;9.77;;;12.60;99.90;;;;;;5011706;28;20041;-83
2022/11/11 12:33:05;;;;;;;20.50;9.63;;;12.60;99.90;;;;;;5007657;28;20043;-83
2022/11/11 12:43:18;;;;;;;13.60;9.52;;;12.60;99.90;;;;;;4964410;28;20494;-81
2022/11/11 12:45:43;;;;;;;12.75;9.55;;;12.50;99.90;;;;;;4981692;28;20069;-82
2022/11/11 12:48:36;;;;;;;12.35;9.70;;;12.50;99.90;;;;;;5013935;28;20052;-82
2022/11/11 12:51:17;;;;;;;18.02;11.30;;;12.60;99.90;;;;;;5013321;28;20037;-81
2022/11/11 12:54:04;;;;;;;12.70;10.07;;;12.50;99.90;;;;;;5030192;28;20083;-82
2022/11/11 12:56:46;;;;;;;11.02;9.50;;;12.50;99.90;;;;;;5008725;28;20033;-82
2022/11/11 12:59:44;;;;;;;12.75;10.55;;;12.50;99.90;;;;;;5011725;28;20366;-81
2022/11/11 13:02:12;;;;;;;11.00;9.75;;;12.40;99.90;;;;;;5029093;28;20506;-81
2022/11/11 13:05:00;;;;;;;11.27;9.75;;;12.50;99.90;;;;;;5025429;28;20048;-81
2022/11/11 13:08:06;;;;;;;10.88;9.77;;;12.40;99.90;;;;;;5014388;28;20086;-81
2022/11/11 13:11:09;;;;;;;28.40;11.05;;;12.40;99.90;;;;;;5026674;28;20124;-82
2022/11/11 13:13:50;;;;;;;17.08;10.27;;;12.40;99.90;;;;;;5026070;28;20115;-82
2022/11/11 13:16:20;;;;;;;14.30;9.82;;;12.40;99.90;;;;;;5015073;28;20045;-82
2022/11/11 13:19:27;;;;;;;12.15;9.43;;;12.40;99.90;;;;;;5007728;28;20044;-81
2022/11/11 13:22:11;;;;;;;;;;;12.40;99.90;;;;;;4930948;29;20407;-80
2022/11/11 13:24:38;;;;;;;17.98;10.65;;;12.40;99.90;;;;;;5006190;28;19925;-82
2022/11/11 13:27:15;;;;;;;14.88;11.05;;;12.40;99.90;;;;;;4997578;28;20037;-81
2022/11/11 13:30:02;;;;;;;14.43;10.27;;;12.40;99.90;;;;;;4996630;28;20033;-81
2022/11/11 13:32:38;;;;;;;13.70;10.23;;;12.50;99.90;;;;;;5008007;28;20077;-81
2022/11/11 13:35:25;;;;;;;14.73;11.00;;;12.40;99.90;;;;;;5009520;28;20064;-81
2022/11/11 13:38:00;;;;;;;11.68;10.45;;;12.50;99.90;;;;;;4988883;28;20043;-81
2022/11/11 13:40:48;;;;;;;11.80;10.18;;;12.50;99.90;;;;;;5003241;28;20046;-82
2022/11/11 13:43:34;;;;;;;12.85;10.52;;;12.50;99.90;;;;;;5013808;28;20045;-82
2022/11/11 13:46:22;;;;;;;12.65;10.40;;;12.60;99.90;;;;;;5008838;28;20372;-81
2022/11/11 13:48:48;;;;;;;13.18;11.30;;;12.60;99.90;;;;;;5001784;28;20041;-82
2022/11/11 13:51:37;;;;;;;14.13;10.23;;;12.60;99.90;;;;;;5006198;28;20744;-82
2022/11/11 13:54:20;;;;;;;14.60;9.82;;;12.60;99.90;;;;;;4994552;28;20551;-82
2022/11/11 13:56:47;;;;;;;15.35;11.02;;;12.60;99.90;;;;;;4989069;28;20116;-82
2022/11/11 13:59:26;;;;;;;15.00;11.13;;;12.70;99.90;;;;;;4993845;28;20125;-82
2022/11/11 14:02:17;;;;;;;10.98;9.80;;;12.70;99.90;;;;;;5003510;28;20088;-83
2022/11/11 14:05:08;;;;;;;11.07;9.40;;;12.70;99.90;;;;;;5007530;28;20041;-82
2022/11/11 14:07:43;;;;;;;11.00;9.98;;;12.70;99.90;;;;;;4985881;28;20057;-81
2022/11/11 14:10:30;;;;;;;16.37;10.03;;;12.70;99.90;;;;;;4999862;28;20033;-81
2022/11/11 14:13:16;;;;;;;14.18;10.80;;;12.70;99.90;;;;;;5010500;28;20535;-81
2022/11/11 14:15:44;;;;;;;11.27;10.07;;;12.70;99.90;;;;;;5005202;28;20547;-83
2022/11/11 14:18:22;;;;;;;11.30;9.65;;;13.10;99.90;;;;;;4985905;28;20087;-83
2022/11/11 14:20:54;;;;;;;17.92;10.90;;;12.70;99.90;;;;;;5016775;28;20072;-81
2022/11/11 14:23:37;;;;;;;14.48;11.27;;;12.70;99.90;;;;;;4988025;28;20546;-83
2022/11/11 14:26:05;;;;;;;17.30;11.15;;;12.70;99.90;;;;;;4988237;28;20053;-83
2022/11/11 14:28:46;;;;;;;13.95;10.85;;;12.70;99.90;;;;;;4995719;28;20045;-82
2022/11/11 14:31:12;;;;;;;10.82;9.77;;;12.70;99.90;;;;;;5007275;28;20094;-83
2022/11/11 14:33:48;;;;;;;15.98;10.60;;;12.80;99.90;;;;;;4989931;28;20044;-82
2022/11/11 14:36:20;;;;;;;14.88;9.60;;;12.60;99.90;;;;;;5024652;28;20053;-82
2022/11/11 14:38:59;;;;;;;10.77;9.73;;;12.60;99.90;;;;;;4991709;28;20041;-82
2022/11/11 14:41:39;;;;;;;12.60;9.07;;;12.60;99.90;;;;;;5020481;28;20058;-82
2022/11/11 14:44:30;;;;;;;16.13;9.88;;;12.60;99.90;;;;;;5006922;28;20157;-82
2022/11/11 14:47:01;;;;;;;14.50;9.57;;;12.50;99.90;;;;;;5005640;28;20562;-82
2022/11/11 14:49:52;;;;;;;9.70;8.80;;;12.50;99.90;;;;;;5019072;28;20041;-82
2022/11/11 14:52:43;;;;;;;12.75;10.23;;;12.50;99.90;;;;;;4991254;28;20050;-81
2022/11/11 14:55:29;;;;;;;11.27;10.10;;;12.40;99.90;;;;;;5008755;28;20050;-82
2022/11/11 14:58:14;;;;;;;12.23;9.68;;;12.40;99.90;;;;;;5006975;28;20446;-82
2022/11/11 15:01:18;;;;;;;12.63;8.95;;;12.40;99.90;;;;;;5002134;28;20055;-82
2022/11/11 15:03:48;;;;;;;16.13;8.70;;;12.30;99.90;;;;;;4988590;28;20100;-83
2022/11/11 15:06:50;;;;;;;11.75;9.43;;;12.20;99.90;;;;;;5007622;28;20458;-82
2022/11/11 15:09:33;;;;;;;12.77;9.48;;;12.10;99.90;;;;;;4978472;28;20041;-82
2022/11/11 15:12:16;;;;;;;18.67;8.90;;;12.00;99.90;;;;;;4993536;28;20069;-82
2022/11/11 15:14:53;;;;;;;12.13;9.23;;;11.90;99.90;;;;;;5009493;28;20041;-82
2022/11/11 15:17:48;;;;;;;11.20;9.35;;;11.80;99.90;;;;;;5006107;28;20086;-82
2022/11/11 15:20:38;;;;;;;10.60;8.77;;;11.70;99.90;;;;;;5007523;28;20029;-82
2022/11/11 15:23:41;;;;;;;13.00;9.35;;;11.60;99.90;;;;;;5005667;28;20353;-82
2022/11/11 15:26:31;;;;;;;12.63;10.60;;;11.50;99.90;;;;;;5022129;28;20050;-83
2022/11/11 15:29:26;;;;;;;11.68;8.30;;;11.40;99.90;;;;;;4988712;28;20042;-83
2022/11/11 15:32:14;;;;;;;14.13;10.82;;;11.30;99.90;;;;;;4988759;28;20045;-81